Masonville, Colorado
Current Conditions -  °F | °C
As of 1:35 PM on Monday 22 Dec 2014 (Local Time) from KFNL Reporting Station
Broken Clouds Broken Clouds  
Wind Chill: 20°   Ceiling: 1100
Heat Index: 32°   Visibility: 1.7mi
Dew Point: 27°   Wind: 21mph
Humidity: 80%   Direction: 340°NNW
Pressure: 29.7"   Gusts: 28mph
Location:  40.49°N, 105.21°W
Report Text: KFNL 222035Z AUTO 34018G24KT 1 3/4SM BKN011 BKN017 BKN025 00/M03 A2970 RMK AO1
Loading
Personal Weather Stations






























Interactive Weather Map New forecast layout! Learn more

10-Day Weather Forecast

Advertisements
Track Severe Weather on mobile